This is the latest recevied weather packets stored in our database for station/object OE-11331. If no packets are shown the sender has not sent any weather packets the latest 10 day(s).
| Time | Temp. | Humidity | Pressure | Rain* | Wind** | Luminosity | Snow |
|---|---|---|---|---|---|---|---|
| 1788081933 | 23.89° C | 60% | 1016.9 hPa | 0 mm | - | 682 W/m² | - |
| 1788081107 | 23.33° C | 61% | 1016.9 hPa | 0 mm | - | 660 W/m² | - |
| 1788080733 | 22.78° C | 64% | 1017 hPa | 0 mm | - | 649 W/m² | - |
| 1788080134 | 22.22° C | 66% | 1017.3 hPa | 0 mm | - | 628 W/m² | - |
| 1788079307 | 22.22° C | 67% | 1017.5 hPa | 0 mm | - | 606 W/m² | - |
| 1788078933 | 21.67° C | 68% | 1017.5 hPa | 0 mm | - | 584 W/m² | - |
| 1788078334 | 21.67° C | 69% | 1017.7 hPa | 0 mm | - | 552 W/m² | - |
| 1788077506 | 21.67° C | 70% | 1017.7 hPa | 0 mm | - | 530 W/m² | - |
| 1788077134 | 21.11° C | 69% | 1017.8 hPa | 0 mm | - | 509 W/m² | - |
| 1788076533 | 21.11° C | 74% | 1017.8 hPa | 0 mm | - | 487 W/m² | - |
| 1788075706 | 20.56° C | 72% | 1017.8 hPa | 0 mm | - | 455 W/m² | - |
| 1788075333 | 19.44° C | 74% | 1018.1 hPa | 0 mm | - | 433 W/m² | - |
| 1788074734 | 19.44° C | 79% | 1018.1 hPa | 0 mm | - | 400 W/m² | - |
| 1788073907 | 19.44° C | 76% | 1018 hPa | 0 mm | - | 368 W/m² | - |
| 1788073533 | 18.33° C | 78% | 1018.2 hPa | 0 mm | - | 346 W/m² | - |
| 1788072933 | 18.33° C | 77% | 1018.3 hPa | 0 mm | - | 314 W/m² | - |
| 1788072107 | 17.78° C | 79% | 1018.4 hPa | 0 mm | - | 292 W/m² | - |
| 1788071734 | 17.78° C | 80% | 1018.4 hPa | 0 mm | - | 260 W/m² | - |
| 1788071134 | 17.22° C | 82% | 1018.5 hPa | 0 mm | - | 227 W/m² | - |
| 1788070307 | 16.67° C | 81% | 1018.6 hPa | 0 mm | - | 195 W/m² | - |
| 1788069933 | 16.67° C | 83% | 1018.5 hPa | 0 mm | - | 173 W/m² | - |
| 1788069334 | 15.56° C | 87% | 1018.7 hPa | 0 mm | - | 152 W/m² | - |
| 1788068507 | 15° C | 88% | 1018.6 hPa | 0 mm | - | 119 W/m² | - |
| 1788068134 | 15° C | 87% | 1018.6 hPa | 0 mm | - | 97 W/m² | - |
| 1788067534 | 15° C | 89% | 1018.6 hPa | 0 mm | - | 54 W/m² | - |
* Rain latest hour (hover to see other rain measurements)
** Current wind speed in m/s (hover to see current wind gust speed)